Time,TemperatureF,DewpointF,PressureIn,WindDirection,WindDirectionDegrees,WindSpeedMPH,WindSpeedGustMPH,Humidity,HourlyPrecipIn,Conditions,Clouds,dailyrainin,SoftwareType,DateUTC
2013-08-24 00:04:00,68.7,67.8,30.08,NE,47,0.0,0.0,97,0.00,,---,0.00,VWS V14.00,2013-08-24 05:04:00,
2013-08-24 00:09:00,68.9,68.0,30.08,NE,47,0.0,0.0,97,0.00,,---,0.00,VWS V14.00,2013-08-24 05:09:00,
2013-08-24 00:14:00,68.3,67.1,30.09,NE,47,0.0,0.0,96,0.00,,---,0.00,VWS V14.00,2013-08-24 05:14:00,
2013-08-24 00:19:00,68.2,67.0,30.08,NE,47,0.0,0.0,96,0.00,,---,0.00,VWS V14.00,2013-08-24 05:19:00,
2013-08-24 00:24:00,68.8,67.9,30.08,NE,47,1.0,1.0,97,0.00,,---,0.00,VWS V14.00,2013-08-24 05:24:00,
2013-08-24 00:29:00,69.5,68.6,30.09,NE,47,0.0,1.0,97,0.00,,---,0.00,VWS V14.00,2013-08-24 05:29:00,
2013-08-24 00:34:00,69.3,68.4,30.09,NE,47,0.0,0.0,97,0.00,,---,0.00,VWS V14.00,2013-08-24 05:34:00,
2013-08-24 00:39:00,68.4,67.2,30.09,NE,47,0.0,0.0,96,0.00,,---,0.00,VWS V14.00,2013-08-24 05:39:00,
2013-08-24 00:44:00,68.1,66.9,30.09,NE,47,0.0,0.0,96,0.00,,---,0.00,VWS V14.00,2013-08-24 05:44:00,
2013-08-24 00:49:00,68.4,67.5,30.09,NE,47,0.0,1.0,97,0.00,,---,0.00,VWS V14.00,2013-08-24 05:49:00,
2013-08-24 00:54:00,68.6,67.7,30.09,NE,47,0.0,0.0,97,0.00,,---,0.00,VWS V14.00,2013-08-24 05:54:00,
2013-08-24 00:59:00,68.3,67.4,30.09,NE,47,1.0,1.0,97,0.00,,---,0.00,VWS V14.00,2013-08-24 05:59:00,
2013-08-24 01:04:00,67.8,66.6,30.09,NE,46,0.0,1.0,96,0.00,,---,0.00,VWS V14.00,2013-08-24 06:04:00,
2013-08-24 01:09:00,67.6,66.7,30.09,NE,47,0.0,1.0,97,0.00,,---,0.00,VWS V14.00,2013-08-24 06:09:00,
2013-08-24 01:14:00,67.9,67.0,30.09,NE,44,1.0,1.0,97,0.00,,---,0.00,VWS V14.00,2013-08-24 06:14:00,
2013-08-24 01:19:00,68.3,67.4,30.09,NE,44,0.0,1.0,97,0.00,,---,0.00,VWS V14.00,2013-08-24 06:19:00,
2013-08-24 01:24:00,68.4,67.5,30.09,NE,44,0.0,0.0,97,0.00,,---,0.00,VWS V14.00,2013-08-24 06:24:00,
2013-08-24 01:29:00,68.1,67.2,30.09,NE,44,0.0,0.0,97,0.00,,---,0.00,VWS V14.00,2013-08-24 06:29:00,
2013-08-24 01:34:00,67.9,67.0,30.09,NE,44,1.0,1.0,97,0.00,,---,0.00,VWS V14.00,2013-08-24 06:34:00,
2013-08-24 01:39:00,68.4,67.5,30.09,NE,44,0.0,1.0,97,0.00,,---,0.00,VWS V14.00,2013-08-24 06:39:00,
2013-08-24 01:44:00,67.9,67.0,30.09,NE,44,0.0,1.0,97,0.00,,---,0.00,VWS V14.00,2013-08-24 06:44:00,
2013-08-24 01:49:00,67.6,66.7,30.09,NE,44,0.0,0.0,97,0.00,,---,0.00,VWS V14.00,2013-08-24 06:49:00,
2013-08-24 01:54:00,67.3,66.4,30.09,NE,44,0.0,0.0,97,0.00,,---,0.00,VWS V14.00,2013-08-24 06:54:00,
2013-08-24 01:59:00,67.2,66.3,30.10,NE,44,0.0,0.0,97,0.00,,---,0.00,VWS V14.00,2013-08-24 06:59:00,
2013-08-24 02:04:00,67.0,66.1,30.10,NE,44,0.0,0.0,97,0.00,,---,0.00,VWS V14.00,2013-08-24 07:04:00,
2013-08-24 02:09:00,66.9,66.0,30.10,NE,44,0.0,0.0,97,0.00,,---,0.00,VWS V14.00,2013-08-24 07:09:00,
2013-08-24 02:14:00,66.7,65.8,30.10,NE,44,0.0,0.0,97,0.00,,---,0.00,VWS V14.00,2013-08-24 07:14:00,
2013-08-24 02:19:00,66.6,65.7,30.09,NE,44,0.0,0.0,97,0.00,,---,0.00,VWS V14.00,2013-08-24 07:19:00,
2013-08-24 02:24:00,67.0,66.1,30.10,NE,44,0.0,1.0,97,0.00,,---,0.00,VWS V14.00,2013-08-24 07:24:00,
2013-08-24 02:29:00,67.1,66.2,30.10,NE,44,0.0,0.0,97,0.00,,---,0.00,VWS V14.00,2013-08-24 07:29:00,
2013-08-24 02:34:00,67.0,66.1,30.10,NE,44,0.0,0.0,97,0.00,,---,0.00,VWS V14.00,2013-08-24 07:34:00,
2013-08-24 02:39:00,67.2,66.3,30.10,NE,44,0.0,0.0,97,0.00,,---,0.00,VWS V14.00,2013-08-24 07:39:00,
2013-08-24 02:44:00,67.6,66.7,30.10,NE,44,1.0,1.0,97,0.00,,---,0.00,VWS V14.00,2013-08-24 07:44:00,
2013-08-24 02:49:00,67.4,66.5,30.10,NE,44,0.0,1.0,97,0.00,,---,0.00,VWS V14.00,2013-08-24 07:49:00,
2013-08-24 02:54:00,66.9,66.0,30.10,NE,44,0.0,0.0,97,0.00,,---,0.00,VWS V14.00,2013-08-24 07:54:00,
2013-08-24 02:59:00,67.2,66.3,30.10,NE,44,0.0,1.0,97,0.00,,---,0.00,VWS V14.00,2013-08-24 07:59:00,
2013-08-24 03:04:00,66.9,66.0,30.11,NE,44,0.0,0.0,97,0.00,,---,0.00,VWS V14.00,2013-08-24 08:04:00,
2013-08-24 03:09:00,66.9,66.0,30.10,NE,44,1.0,1.0,97,0.00,,---,0.00,VWS V14.00,2013-08-24 08:09:00,
2013-08-24 03:14:00,67.2,66.3,30.11,NE,44,0.0,1.0,97,0.00,,---,0.00,VWS V14.00,2013-08-24 08:14:00,
2013-08-24 03:19:00,67.4,66.5,30.11,NE,44,0.0,1.0,97,0.00,,---,0.00,VWS V14.00,2013-08-24 08:19:00,
2013-08-24 03:24:00,67.3,66.4,30.11,NE,44,0.0,0.0,97,0.00,,---,0.00,VWS V14.00,2013-08-24 08:24:00,
2013-08-24 03:29:00,67.1,66.2,30.11,NE,44,0.0,0.0,97,0.00,,---,0.00,VWS V14.00,2013-08-24 08:29:00,
2013-08-24 03:34:00,67.2,66.3,30.11,NE,44,0.0,0.0,97,0.00,,---,0.00,VWS V14.00,2013-08-24 08:34:00,
2013-08-24 03:39:00,67.2,66.3,30.11,NE,44,0.0,0.0,97,0.00,,---,0.00,VWS V14.00,2013-08-24 08:39:00,
2013-08-24 03:44:00,67.1,66.2,30.11,NE,44,0.0,0.0,97,0.00,,---,0.00,VWS V14.00,2013-08-24 08:44:00,
2013-08-24 03:49:00,66.9,66.0,30.11,NE,44,0.0,0.0,97,0.00,,---,0.00,VWS V14.00,2013-08-24 08:49:00,
2013-08-24 03:54:00,66.9,66.0,30.11,NE,44,0.0,0.0,97,0.00,,---,0.00,VWS V14.00,2013-08-24 08:54:00,
2013-08-24 03:59:00,66.7,65.8,30.11,NE,44,0.0,0.0,97,0.00,,---,0.00,VWS V14.00,2013-08-24 08:59:00,
2013-08-24 04:04:00,66.2,65.3,30.11,NE,44,0.0,0.0,97,0.00,,---,0.00,VWS V14.00,2013-08-24 09:04:00,
2013-08-24 04:09:00,65.8,64.9,30.11,NE,46,0.0,0.0,97,0.00,,---,0.00,VWS V14.00,2013-08-24 09:09:00,
2013-08-24 04:14:00,65.3,64.4,30.11,NE,46,0.0,0.0,97,0.00,,---,0.00,VWS V14.00,2013-08-24 09:14:00,
2013-08-24 04:19:00,65.5,64.6,30.11,NE,44,0.0,0.0,97,0.00,,---,0.00,VWS V14.00,2013-08-24 09:19:00,
2013-08-24 04:24:00,65.6,64.7,30.11,NE,44,0.0,0.0,97,0.00,,---,0.00,VWS V14.00,2013-08-24 09:24:00,
2013-08-24 04:29:00,65.8,64.9,30.11,NE,44,0.0,0.0,97,0.00,,---,0.00,VWS V14.00,2013-08-24 09:29:00,
2013-08-24 04:34:00,65.7,64.8,30.11,NE,44,0.0,0.0,97,0.00,,---,0.00,VWS V14.00,2013-08-24 09:34:00,
2013-08-24 04:39:00,65.8,64.9,30.11,NE,44,0.0,0.0,97,0.00,,---,0.00,VWS V14.00,2013-08-24 09:39:00,
2013-08-24 04:44:00,65.9,65.0,30.11,NE,44,0.0,0.0,97,0.00,,---,0.00,VWS V14.00,2013-08-24 09:44:00,
2013-08-24 04:49:00,66.3,65.7,30.11,NE,44,0.0,0.0,98,0.00,,---,0.00,VWS V14.00,2013-08-24 09:49:00,
2013-08-24 04:54:00,66.2,65.6,30.11,NE,44,0.0,0.0,98,0.00,,---,0.00,VWS V14.00,2013-08-24 09:54:00,
2013-08-24 04:59:00,66.2,65.6,30.11,NE,44,0.0,1.0,98,0.00,,---,0.00,VWS V14.00,2013-08-24 09:59:00,
2013-08-24 05:04:00,66.6,66.0,30.12,NE,44,0.0,1.0,98,0.00,,---,0.00,VWS V14.00,2013-08-24 10:04:00,
2013-08-24 05:09:00,66.6,66.0,30.12,NE,44,0.0,0.0,98,0.00,,---,0.00,VWS V14.00,2013-08-24 10:09:00,
2013-08-24 05:14:00,66.4,65.8,30.12,NE,44,0.0,0.0,98,0.00,,---,0.00,VWS V14.00,2013-08-24 10:14:00,
2013-08-24 05:19:00,66.4,65.8,30.12,NE,44,0.0,0.0,98,0.00,,---,0.00,VWS V14.00,2013-08-24 10:19:00,
2013-08-24 05:24:00,66.7,66.1,30.12,NE,44,0.0,1.0,98,0.00,,---,0.00,VWS V14.00,2013-08-24 10:24:00,
2013-08-24 05:29:00,66.9,66.3,30.12,NE,45,0.0,1.0,98,0.00,,---,0.00,VWS V14.00,2013-08-24 10:29:00,
2013-08-24 05:34:00,67.3,66.7,30.12,NE,44,0.0,2.0,98,0.00,,---,0.00,VWS V14.00,2013-08-24 10:34:00,
2013-08-24 05:39:00,67.6,67.0,30.12,NE,50,0.0,2.0,98,0.00,,---,0.00,VWS V14.00,2013-08-24 10:39:00,
2013-08-24 05:44:00,67.7,67.1,30.12,NE,49,0.0,0.0,98,0.00,,---,0.00,VWS V14.00,2013-08-24 10:44:00,
2013-08-24 05:49:00,67.6,67.0,30.12,NE,49,0.0,0.0,98,0.00,,---,0.00,VWS V14.00,2013-08-24 10:49:00,
2013-08-24 05:54:00,67.1,66.5,30.13,NE,49,0.0,0.0,98,0.00,,---,0.00,VWS V14.00,2013-08-24 10:54:00,
2013-08-24 05:59:00,66.9,66.3,30.13,NE,49,0.0,0.0,98,0.00,,---,0.00,VWS V14.00,2013-08-24 10:59:00,
2013-08-24 06:04:00,66.8,66.2,30.13,NE,49,0.0,0.0,98,0.00,,---,0.00,VWS V14.00,2013-08-24 11:04:00,
2013-08-24 06:09:00,66.6,66.0,30.14,NE,49,0.0,0.0,98,0.00,,---,0.00,VWS V14.00,2013-08-24 11:09:00,
2013-08-24 06:14:00,66.5,65.9,30.14,NE,49,0.0,0.0,98,0.00,,---,0.00,VWS V14.00,2013-08-24 11:14:00,
2013-08-24 06:19:00,66.9,66.3,30.14,NE,37,0.0,1.0,98,0.00,,---,0.00,VWS V14.00,2013-08-24 11:19:00,
2013-08-24 06:24:00,67.2,66.6,30.14,NE,37,0.0,1.0,98,0.00,,---,0.00,VWS V14.00,2013-08-24 11:24:00,
2013-08-24 06:29:00,67.4,66.8,30.14,NE,37,1.0,1.0,98,0.00,,---,0.00,VWS V14.00,2013-08-24 11:29:00,
2013-08-24 06:34:00,67.6,67.0,30.15,NNE,33,1.0,1.0,98,0.00,,---,0.00,VWS V14.00,2013-08-24 11:34:00,
2013-08-24 06:39:00,67.8,67.2,30.15,NNE,23,2.0,2.0,98,0.00,,---,0.00,VWS V14.00,2013-08-24 11:39:00,
2013-08-24 06:44:00,68.0,67.4,30.15,NNE,32,2.0,4.0,98,0.00,,---,0.00,VWS V14.00,2013-08-24 11:44:00,
2013-08-24 06:49:00,68.1,67.5,30.15,NNE,33,1.0,3.0,98,0.00,,---,0.00,VWS V14.00,2013-08-24 11:49:00,
2013-08-24 06:54:00,68.3,67.7,30.15,NNE,32,2.0,2.0,98,0.00,,---,0.00,VWS V14.00,2013-08-24 11:54:00,
2013-08-24 06:59:00,68.4,67.8,30.15,NNE,27,1.0,3.0,98,0.00,,---,0.00,VWS V14.00,2013-08-24 11:59:00,
2013-08-24 07:04:00,68.6,68.0,30.16,NNE,26,1.0,4.0,98,0.00,,---,0.00,VWS V14.00,2013-08-24 12:04:00,
2013-08-24 07:09:00,68.9,68.3,30.16,NE,43,1.0,3.0,98,0.00,,---,0.00,VWS V14.00,2013-08-24 12:09:00,
2013-08-24 07:14:00,69.4,68.5,30.16,NE,36,1.0,3.0,97,0.00,,---,0.00,VWS V14.00,2013-08-24 12:14:00,
2013-08-24 07:19:00,69.9,69.0,30.16,NNE,25,3.0,4.0,97,0.00,,---,0.00,VWS V14.00,2013-08-24 12:19:00,
2013-08-24 07:24:00,70.5,69.3,30.16,NE,43,2.0,3.0,96,0.00,,---,0.00,VWS V14.00,2013-08-24 12:24:00,
2013-08-24 07:29:00,71.0,69.2,30.17,NNE,32,2.0,4.0,94,0.00,,---,0.00,VWS V14.00,2013-08-24 12:29:00,
2013-08-24 07:34:00,71.5,69.4,30.17,NE,39,3.0,5.0,93,0.00,,---,0.00,VWS V14.00,2013-08-24 12:34:00,
2013-08-24 07:39:00,72.1,69.7,30.17,NE,36,1.0,4.0,92,0.00,,---,0.00,VWS V14.00,2013-08-24 12:39:00,
2013-08-24 07:44:00,72.8,70.0,30.17,NE,43,1.0,5.0,91,0.00,,---,0.00,VWS V14.00,2013-08-24 12:44:00,
2013-08-24 07:49:00,73.3,70.2,30.17,NE,51,2.0,4.0,90,0.00,,---,0.00,VWS V14.00,2013-08-24 12:49:00,
2013-08-24 07:54:00,73.7,70.3,30.18,ENE,63,2.0,4.0,89,0.00,,---,0.00,VWS V14.00,2013-08-24 12:54:00,
2013-08-24 07:59:00,74.2,70.4,30.18,NE,47,1.0,5.0,88,0.00,,---,0.00,VWS V14.00,2013-08-24 12:59:00,
2013-08-24 08:04:00,74.7,70.9,30.18,NE,51,3.0,4.0,88,0.00,,---,0.00,VWS V14.00,2013-08-24 13:04:00,
2013-08-24 08:09:00,75.2,71.1,30.18,NE,34,2.0,3.0,87,0.00,,---,0.00,VWS V14.00,2013-08-24 13:09:00,
2013-08-24 08:14:00,75.5,71.0,30.18,NNE,27,4.0,5.0,86,0.00,,---,0.00,VWS V14.00,2013-08-24 13:14:00,
2013-08-24 08:19:00,75.5,70.7,30.18,NE,34,2.0,5.0,85,0.00,,---,0.00,VWS V14.00,2013-08-24 13:19:00,
2013-08-24 08:24:00,75.7,70.5,30.18,NNE,32,3.0,7.0,84,0.00,,---,0.00,VWS V14.00,2013-08-24 13:24:00,
2013-08-24 08:29:00,76.0,71.2,30.18,North,8,4.0,5.0,85,0.00,,---,0.00,VWS V14.00,2013-08-24 13:29:00,
2013-08-24 08:34:00,76.3,70.8,30.19,NNE,23,5.0,8.0,83,0.00,,---,0.00,VWS V14.00,2013-08-24 13:34:00,
2013-08-24 08:39:00,76.4,70.9,30.18,ENE,71,3.0,6.0,83,0.00,,---,0.00,VWS V14.00,2013-08-24 13:39:00,
2013-08-24 08:44:00,76.9,71.3,30.18,NE,40,4.0,4.0,83,0.00,,---,0.00,VWS V14.00,2013-08-24 13:44:00,
2013-08-24 08:49:00,77.2,71.6,30.18,NNE,30,3.0,3.0,83,0.00,,---,0.00,VWS V14.00,2013-08-24 13:49:00,
2013-08-24 08:55:00,77.5,71.2,30.18,East,86,2.0,5.0,81,0.00,,---,0.00,VWS V14.00,2013-08-24 13:55:00,
2013-08-24 09:00:00,77.9,72.0,30.18,East,83,3.0,3.0,82,0.00,,---,0.00,VWS V14.00,2013-08-24 14:00:00,
2013-08-24 09:05:00,78.2,71.9,30.18,ENE,68,2.0,3.0,81,0.00,,---,0.00,VWS V14.00,2013-08-24 14:05:00,
2013-08-24 09:10:00,78.5,71.4,30.18,NNE,29,4.0,5.0,79,0.00,,---,0.00,VWS V14.00,2013-08-24 14:10:00,
2013-08-24 09:15:00,78.8,71.7,30.19,ENE,57,3.0,5.0,79,0.00,,---,0.00,VWS V14.00,2013-08-24 14:15:00,
2013-08-24 09:20:00,79.2,72.1,30.19,NNE,28,4.0,8.0,79,0.00,,---,0.00,VWS V14.00,2013-08-24 14:20:00,
2013-08-24 09:26:00,79.4,72.3,30.19,ENE,71,2.0,8.0,79,0.00,,---,0.00,VWS V14.00,2013-08-24 14:26:00,
2013-08-24 09:31:00,79.8,72.7,30.19,NNE,19,4.0,8.0,79,0.00,,---,0.00,VWS V14.00,2013-08-24 14:31:00,
2013-08-24 09:36:00,80.1,73.0,30.19,East,82,4.0,4.0,79,0.00,,---,0.00,VWS V14.00,2013-08-24 14:36:00,
2013-08-24 09:41:00,80.6,72.7,30.19,East,83,4.0,6.0,77,0.00,,---,0.00,VWS V14.00,2013-08-24 14:41:00,
2013-08-24 09:46:00,80.7,71.7,30.19,NNE,25,6.0,9.0,74,0.00,,---,0.00,VWS V14.00,2013-08-24 14:46:00,
2013-08-24 09:51:00,81.1,72.0,30.19,NE,50,5.0,6.0,74,0.00,,---,0.00,VWS V14.00,2013-08-24 14:51:00,
2013-08-24 09:56:00,81.0,71.5,30.19,NNE,20,6.0,7.0,73,0.00,,---,0.00,VWS V14.00,2013-08-24 14:56:00,
2013-08-24 10:01:00,81.3,71.4,30.18,ESE,105,5.0,6.0,72,0.00,,---,0.00,VWS V14.00,2013-08-24 15:01:00,
2013-08-24 10:07:00,81.7,72.2,30.19,NE,51,1.0,7.0,73,0.00,,---,0.00,VWS V14.00,2013-08-24 15:07:00,
2013-08-24 10:12:00,82.0,72.5,30.18,North,351,5.0,9.0,73,0.00,,---,0.00,VWS V14.00,2013-08-24 15:12:00,
2013-08-24 10:17:00,82.0,72.5,30.18,NE,34,6.0,9.0,73,0.00,,---,0.00,VWS V14.00,2013-08-24 15:17:00,
2013-08-24 10:22:00,82.1,72.2,30.18,NE,34,6.0,9.0,72,0.00,,---,0.00,VWS V14.00,2013-08-24 15:22:00,
2013-08-24 10:27:00,82.2,71.4,30.19,NNE,27,6.0,11.0,70,0.00,,---,0.00,VWS V14.00,2013-08-24 15:27:00,
2013-08-24 10:32:00,82.3,72.0,30.19,NNE,30,2.0,6.0,71,0.00,,---,0.00,VWS V14.00,2013-08-24 15:32:00,
2013-08-24 10:37:00,82.3,72.4,30.19,ENE,63,4.0,9.0,72,0.00,,---,0.00,VWS V14.00,2013-08-24 15:37:00,
2013-08-24 10:42:00,82.7,72.8,30.19,ESE,102,3.0,7.0,72,0.00,,---,0.00,VWS V14.00,2013-08-24 15:42:00,
2013-08-24 10:47:00,82.9,72.1,30.19,East,84,6.0,8.0,70,0.00,,---,0.00,VWS V14.00,2013-08-24 15:47:00,
2013-08-24 10:53:00,83.0,72.2,30.19,NNE,27,3.0,8.0,70,0.00,,---,0.00,VWS V14.00,2013-08-24 15:53:00,
2013-08-24 10:58:00,83.5,72.7,30.19,North,5,7.0,10.0,70,0.00,,---,0.00,VWS V14.00,2013-08-24 15:58:00,
2013-08-24 11:03:00,83.4,72.2,30.19,NNE,28,4.0,12.0,69,0.00,,---,0.00,VWS V14.00,2013-08-24 16:03:00,
2013-08-24 11:08:00,83.6,71.5,30.19,NNE,29,5.0,9.0,67,0.00,,---,0.00,VWS V14.00,2013-08-24 16:08:00,
2013-08-24 11:13:00,83.8,71.7,30.18,NNE,18,4.0,9.0,67,0.00,,---,0.00,VWS V14.00,2013-08-24 16:13:00,
2013-08-24 11:18:00,83.7,71.1,30.18,NE,36,5.0,11.0,66,0.00,,---,0.00,VWS V14.00,2013-08-24 16:18:00,
2013-08-24 11:23:00,83.6,70.6,30.18,North,6,10.0,10.0,65,0.00,,---,0.00,VWS V14.00,2013-08-24 16:23:00,
2013-08-24 11:28:00,83.4,70.4,30.18,NNE,22,6.0,12.0,65,0.00,,---,0.00,VWS V14.00,2013-08-24 16:28:00,
2013-08-24 11:34:00,83.8,71.7,30.18,WSW,256,5.0,10.0,67,0.00,,---,0.00,VWS V14.00,2013-08-24 16:34:00,
2013-08-24 11:39:00,83.9,71.3,30.18,NE,44,4.0,12.0,66,0.00,,---,0.00,VWS V14.00,2013-08-24 16:39:00,
2013-08-24 11:44:00,84.1,72.4,30.18,NNE,27,5.0,9.0,68,0.00,,---,0.00,VWS V14.00,2013-08-24 16:44:00,
2013-08-24 11:49:00,84.4,70.9,30.18,East,90,6.0,8.0,64,0.00,,---,0.00,VWS V14.00,2013-08-24 16:49:00,
2013-08-24 11:54:00,84.2,70.7,30.18,ENE,68,6.0,9.0,64,0.00,,---,0.00,VWS V14.00,2013-08-24 16:54:00,
2013-08-24 11:59:00,84.2,71.2,30.17,NNE,27,4.0,7.0,65,0.00,,---,0.00,VWS V14.00,2013-08-24 16:59:00,
2013-08-24 12:04:00,84.5,71.0,30.17,ENE,76,6.0,10.0,64,0.00,,---,0.00,VWS V14.00,2013-08-24 17:04:00,
2013-08-24 12:09:00,84.5,70.5,30.17,ENE,60,7.0,9.0,63,0.00,,---,0.00,VWS V14.00,2013-08-24 17:09:00,
2013-08-24 12:14:00,84.7,70.2,30.17,NE,39,3.0,8.0,62,0.00,,---,0.00,VWS V14.00,2013-08-24 17:14:00,
2013-08-24 12:19:00,84.8,70.8,30.17,NNE,33,6.0,10.0,63,0.00,,---,0.00,VWS V14.00,2013-08-24 17:19:00,
2013-08-24 12:24:00,85.0,69.6,30.17,South,180,1.0,7.0,60,0.00,,---,0.00,VWS V14.00,2013-08-24 17:24:00,
2013-08-24 12:29:00,85.2,70.2,30.17,East,79,3.0,7.0,61,0.00,,---,0.00,VWS V14.00,2013-08-24 17:29:00,
2013-08-24 12:34:00,85.1,71.1,30.17,East,88,5.0,6.0,63,0.00,,---,0.00,VWS V14.00,2013-08-24 17:34:00,
2013-08-24 12:39:00,85.6,71.6,30.17,NE,56,2.0,7.0,63,0.00,,---,0.00,VWS V14.00,2013-08-24 17:39:00,
2013-08-24 12:44:00,85.6,70.1,30.17,NE,51,2.0,8.0,60,0.00,,---,0.00,VWS V14.00,2013-08-24 17:44:00,
2013-08-24 12:49:00,85.3,70.8,30.17,NNE,25,3.0,13.0,62,0.00,,---,0.00,VWS V14.00,2013-08-24 17:49:00,
2013-08-24 12:54:00,85.2,72.1,30.16,NE,53,3.0,10.0,65,0.00,,---,0.00,VWS V14.00,2013-08-24 17:54:00,
2013-08-24 12:59:00,85.4,71.8,30.16,NE,56,7.0,11.0,64,0.00,,---,0.00,VWS V14.00,2013-08-24 17:59:00,
2013-08-24 13:04:00,85.8,70.3,30.17,NNE,29,8.0,9.0,60,0.00,,---,0.00,VWS V14.00,2013-08-24 18:04:00,
2013-08-24 13:09:00,86.0,70.5,30.16,NE,47,4.0,10.0,60,0.00,,---,0.00,VWS V14.00,2013-08-24 18:09:00,
2013-08-24 13:14:00,86.1,70.1,30.16,NNW,339,9.0,11.0,59,0.00,,---,0.00,VWS V14.00,2013-08-24 18:14:00,
2013-08-24 13:19:00,86.4,70.9,30.16,NNE,26,7.0,9.0,60,0.00,,---,0.00,VWS V14.00,2013-08-24 18:19:00,
2013-08-24 13:24:00,86.1,69.6,30.17,NE,49,3.0,11.0,58,0.00,,---,0.00,VWS V14.00,2013-08-24 18:24:00,
2013-08-24 13:29:00,85.9,69.4,30.16,NE,37,5.0,11.0,58,0.00,,---,0.00,VWS V14.00,2013-08-24 18:29:00,
2013-08-24 13:34:00,85.8,69.3,30.16,NNE,29,7.0,11.0,58,0.00,,---,0.00,VWS V14.00,2013-08-24 18:34:00,
2013-08-24 13:39:00,86.2,69.7,30.16,NE,37,7.0,11.0,58,0.00,,---,0.00,VWS V14.00,2013-08-24 18:39:00,
2013-08-24 13:44:00,85.9,69.4,30.16,NNE,15,9.0,12.0,58,0.00,,---,0.00,VWS V14.00,2013-08-24 18:44:00,
2013-08-24 13:49:00,86.0,70.0,30.17,NNE,23,3.0,13.0,59,0.00,,---,0.00,VWS V14.00,2013-08-24 18:49:00,
2013-08-24 13:54:00,86.3,69.8,30.16,NE,34,3.0,7.0,58,0.00,,---,0.00,VWS V14.00,2013-08-24 18:54:00,
2013-08-24 13:59:00,86.4,69.9,30.16,NNE,23,7.0,11.0,58,0.00,,---,0.00,VWS V14.00,2013-08-24 18:59:00,
2013-08-24 14:04:00,86.4,70.9,30.16,NE,49,5.0,10.0,60,0.00,,---,0.00,VWS V14.00,2013-08-24 19:04:00,
2013-08-24 14:09:00,86.8,69.8,30.16,North,1,10.0,11.0,57,0.00,,---,0.00,VWS V14.00,2013-08-24 19:09:00,
2013-08-24 14:14:00,86.9,69.3,30.16,East,86,3.0,11.0,56,0.00,,---,0.00,VWS V14.00,2013-08-24 19:14:00,
2013-08-24 14:19:00,87.2,70.1,30.16,NW,309,6.0,11.0,57,0.00,,---,0.00,VWS V14.00,2013-08-24 19:19:00,
2013-08-24 14:24:00,86.9,70.4,30.16,North,358,3.0,10.0,58,0.00,,---,0.00,VWS V14.00,2013-08-24 19:24:00,
2013-08-24 14:29:00,87.1,69.5,30.16,North,356,7.0,12.0,56,0.00,,---,0.00,VWS V14.00,2013-08-24 19:29:00,
2013-08-24 14:34:00,86.3,68.8,30.16,NE,37,4.0,11.0,56,0.00,,---,0.00,VWS V14.00,2013-08-24 19:34:00,
2013-08-24 14:39:00,86.1,69.6,30.16,NE,43,4.0,8.0,58,0.00,,---,0.00,VWS V14.00,2013-08-24 19:39:00,
2013-08-24 14:44:00,86.3,70.3,30.16,North,11,8.0,8.0,59,0.00,,---,0.00,VWS V14.00,2013-08-24 19:44:00,
2013-08-24 14:49:00,85.7,70.2,30.16,NNE,19,5.0,8.0,60,0.00,,---,0.00,VWS V14.00,2013-08-24 19:49:00,
2013-08-24 14:54:00,86.1,70.6,30.16,NNE,27,6.0,11.0,60,0.00,,---,0.00,VWS V14.00,2013-08-24 19:54:00,
2013-08-24 14:59:00,86.4,69.9,30.16,NNE,26,5.0,7.0,58,0.00,,---,0.00,VWS V14.00,2013-08-24 19:59:00,
2013-08-24 15:04:00,86.2,69.7,30.16,NNE,33,3.0,7.0,58,0.00,,---,0.00,VWS V14.00,2013-08-24 20:04:00,
2013-08-24 15:09:00,86.8,69.2,30.16,NE,44,3.0,11.0,56,0.00,,---,0.00,VWS V14.00,2013-08-24 20:09:00,
2013-08-24 15:14:00,86.8,69.8,30.15,East,79,4.0,12.0,57,0.00,,---,0.00,VWS V14.00,2013-08-24 20:14:00,
2013-08-24 15:19:00,87.0,67.8,30.15,NNE,25,4.0,7.0,53,0.00,,---,0.00,VWS V14.00,2013-08-24 20:19:00,
2013-08-24 15:24:00,87.2,69.6,30.15,ESE,115,5.0,6.0,56,0.00,,---,0.00,VWS V14.00,2013-08-24 20:24:00,
2013-08-24 15:29:00,87.2,70.6,30.15,ENE,63,4.0,6.0,58,0.00,,---,0.00,VWS V14.00,2013-08-24 20:29:00,
2013-08-24 15:34:00,87.3,70.7,30.15,ENE,61,7.0,9.0,58,0.00,,---,0.00,VWS V14.00,2013-08-24 20:34:00,
2013-08-24 15:39:00,86.7,68.6,30.15,ESE,121,5.0,10.0,55,0.00,,---,0.00,VWS V14.00,2013-08-24 20:39:00,
2013-08-24 15:44:00,86.2,69.7,30.15,NE,36,3.0,8.0,58,0.00,,---,0.00,VWS V14.00,2013-08-24 20:44:00,
2013-08-24 15:49:00,86.7,71.2,30.15,ENE,75,2.0,6.0,60,0.00,,---,0.00,VWS V14.00,2013-08-24 20:49:00,
2013-08-24 15:54:00,87.2,71.1,30.15,NNE,23,4.0,5.0,59,0.00,,---,0.00,VWS V14.00,2013-08-24 20:54:00,
2013-08-24 15:59:00,87.3,70.2,30.15,ESE,115,5.0,11.0,57,0.00,,---,0.00,VWS V14.00,2013-08-24 20:59:00,
2013-08-24 16:04:00,87.1,68.4,30.15,East,79,4.0,5.0,54,0.00,,---,0.00,VWS V14.00,2013-08-24 21:04:00,
2013-08-24 16:09:00,87.3,68.6,30.15,NNE,16,5.0,6.0,54,0.00,,---,0.00,VWS V14.00,2013-08-24 21:09:00,
2013-08-24 16:14:00,87.1,69.0,30.15,East,79,2.0,3.0,55,0.00,,---,0.00,VWS V14.00,2013-08-24 21:14:00,
2013-08-24 16:20:00,87.2,69.1,30.15,North,349,4.0,5.0,55,0.00,,---,0.00,VWS V14.00,2013-08-24 21:20:00,
2013-08-24 16:25:00,87.0,69.9,30.15,NE,44,4.0,5.0,57,0.00,,---,0.00,VWS V14.00,2013-08-24 21:25:00,
2013-08-24 16:30:00,87.0,69.4,30.15,NNE,15,7.0,7.0,56,0.00,,---,0.00,VWS V14.00,2013-08-24 21:30:00,
2013-08-24 16:35:00,86.9,68.3,30.15,NNE,13,3.0,10.0,54,0.00,,---,0.00,VWS V14.00,2013-08-24 21:35:00,
2013-08-24 16:40:00,86.5,68.4,30.15,NE,43,4.0,7.0,55,0.00,,---,0.00,VWS V14.00,2013-08-24 21:40:00,
2013-08-24 16:45:00,85.8,68.8,30.15,NNE,32,4.0,9.0,57,0.00,,---,0.00,VWS V14.00,2013-08-24 21:45:00,
2013-08-24 16:50:00,85.7,69.7,30.15,NNE,25,4.0,7.0,59,0.00,,---,0.00,VWS V14.00,2013-08-24 21:50:00,
2013-08-24 16:55:00,86.5,70.5,30.15,North,358,4.0,5.0,59,0.00,,---,0.00,VWS V14.00,2013-08-24 21:55:00,
2013-08-24 17:00:00,86.4,69.9,30.15,NNE,16,2.0,4.0,58,0.00,,---,0.00,VWS V14.00,2013-08-24 22:00:00,
2013-08-24 17:05:00,85.4,69.0,30.15,NNE,29,5.0,6.0,58,0.00,,---,0.00,VWS V14.00,2013-08-24 22:05:00,
2013-08-24 17:11:00,84.5,68.6,30.15,NE,53,2.0,5.0,59,0.00,,---,0.00,VWS V14.00,2013-08-24 22:11:00,
2013-08-24 17:16:00,84.6,69.2,30.15,NNE,29,2.0,8.0,60,0.00,,---,0.00,VWS V14.00,2013-08-24 22:16:00,
2013-08-24 17:21:00,85.2,69.8,30.14,ENE,63,4.0,5.0,60,0.00,,---,0.00,VWS V14.00,2013-08-24 22:21:00,
2013-08-24 17:26:00,85.6,70.1,30.14,East,81,4.0,5.0,60,0.00,,---,0.00,VWS V14.00,2013-08-24 22:26:00,
2013-08-24 17:31:00,85.6,69.1,30.14,NNE,25,4.0,10.0,58,0.00,,---,0.00,VWS V14.00,2013-08-24 22:31:00,
2013-08-24 17:37:00,85.5,68.5,30.14,NE,34,5.0,7.0,57,0.00,,---,0.00,VWS V14.00,2013-08-24 22:37:00,
2013-08-24 17:42:00,85.4,67.9,30.14,NNE,20,4.0,9.0,56,0.00,,---,0.00,VWS V14.00,2013-08-24 22:42:00,
2013-08-24 17:47:00,85.4,68.4,30.14,NNE,28,6.0,7.0,57,0.00,,---,0.00,VWS V14.00,2013-08-24 22:47:00,
2013-08-24 17:52:00,85.3,68.3,30.14,NNE,25,5.0,10.0,57,0.00,,---,0.00,VWS V14.00,2013-08-24 22:52:00,
2013-08-24 17:57:00,85.2,68.8,30.14,NNE,25,6.0,8.0,58,0.00,,---,0.00,VWS V14.00,2013-08-24 22:57:00,
2013-08-24 18:02:00,85.1,68.7,30.14,NNE,23,2.0,5.0,58,0.00,,---,0.00,VWS V14.00,2013-08-24 23:02:00,
2013-08-24 18:08:00,84.9,69.0,30.14,NE,46,3.0,6.0,59,0.00,,---,0.00,VWS V14.00,2013-08-24 23:08:00,
2013-08-24 18:13:00,84.8,69.4,30.14,NE,40,0.0,6.0,60,0.00,,---,0.00,VWS V14.00,2013-08-24 23:13:00,
2013-08-24 18:18:00,84.6,68.7,30.14,NNE,21,6.0,7.0,59,0.00,,---,0.00,VWS V14.00,2013-08-24 23:18:00,
2013-08-24 18:23:00,84.4,68.5,30.14,ENE,57,2.0,7.0,59,0.00,,---,0.00,VWS V14.00,2013-08-24 23:23:00,
2013-08-24 18:28:00,84.2,68.3,30.14,NNE,28,2.0,7.0,59,0.00,,---,0.00,VWS V14.00,2013-08-24 23:28:00,
2013-08-24 18:33:00,84.0,68.1,30.14,NE,46,3.0,10.0,59,0.00,,---,0.00,VWS V14.00,2013-08-24 23:33:00,
2013-08-24 18:38:00,83.8,68.4,30.14,NE,34,2.0,5.0,60,0.00,,---,0.00,VWS V14.00,2013-08-24 23:38:00,
2013-08-24 18:43:00,83.6,68.7,30.14,NNE,27,2.0,5.0,61,0.00,,---,0.00,VWS V14.00,2013-08-24 23:43:00,
2013-08-24 18:49:00,83.4,69.0,30.14,North,352,1.0,4.0,62,0.00,,---,0.00,VWS V14.00,2013-08-24 23:49:00,
2013-08-24 18:54:00,83.1,69.2,30.14,NNE,25,2.0,2.0,63,0.00,,---,0.00,VWS V14.00,2013-08-24 23:54:00,
2013-08-24 18:59:00,82.8,69.8,30.14,North,8,1.0,3.0,65,0.00,,---,0.00,VWS V14.00,2013-08-24 23:59:00,
2013-08-24 19:04:00,82.4,69.5,30.14,NNE,16,2.0,4.0,65,0.00,,---,0.00,VWS V14.00,2013-08-25 00:04:00,
2013-08-24 19:09:00,82.0,69.5,30.15,NNE,14,1.0,3.0,66,0.00,,---,0.00,VWS V14.00,2013-08-25 00:09:00,
2013-08-24 19:14:00,81.4,69.4,30.15,NNE,13,2.0,4.0,67,0.00,,---,0.00,VWS V14.00,2013-08-25 00:14:00,
2013-08-24 19:19:00,80.7,69.2,30.15,NNE,12,2.0,2.0,68,0.00,,---,0.00,VWS V14.00,2013-08-25 00:19:00,
2013-08-24 19:24:00,80.2,68.7,30.15,NNE,12,2.0,3.0,68,0.00,,---,0.00,VWS V14.00,2013-08-25 00:24:00,
2013-08-24 19:29:00,79.7,68.6,30.15,North,359,2.0,3.0,69,0.00,,---,0.00,VWS V14.00,2013-08-25 00:29:00,
2013-08-24 19:34:00,79.3,68.7,30.15,NNE,17,1.0,3.0,70,0.00,,---,0.00,VWS V14.00,2013-08-25 00:34:00,
2013-08-24 19:39:00,79.0,68.8,30.15,NNE,13,1.0,2.0,71,0.00,,---,0.00,VWS V14.00,2013-08-25 00:39:00,
2013-08-24 19:44:00,78.6,68.4,30.15,NNE,15,1.0,2.0,71,0.00,,---,0.00,VWS V14.00,2013-08-25 00:44:00,
2013-08-24 19:49:00,78.3,68.1,30.15,North,9,2.0,3.0,71,0.00,,---,0.00,VWS V14.00,2013-08-25 00:49:00,
2013-08-24 19:54:00,78.1,67.9,30.15,North,8,3.0,3.0,71,0.00,,---,0.00,VWS V14.00,2013-08-25 00:54:00,
2013-08-24 19:59:00,78.0,67.8,30.16,NNE,25,2.0,2.0,71,0.00,,---,0.00,VWS V14.00,2013-08-25 00:59:00,
2013-08-24 20:04:00,77.7,68.0,30.16,NNE,22,2.0,3.0,72,0.00,,---,0.00,VWS V14.00,2013-08-25 01:04:00,
2013-08-24 20:09:00,77.4,67.7,30.16,NNE,21,3.0,3.0,72,0.00,,---,0.00,VWS V14.00,2013-08-25 01:09:00,
2013-08-24 20:14:00,77.2,67.5,30.16,NNE,21,1.0,4.0,72,0.00,,---,0.00,VWS V14.00,2013-08-25 01:14:00,
2013-08-24 20:19:00,76.9,67.6,30.16,NNE,21,0.0,2.0,73,0.00,,---,0.00,VWS V14.00,2013-08-25 01:19:00,
2013-08-24 20:24:00,76.4,67.9,30.16,NNE,21,1.0,1.0,75,0.00,,---,0.00,VWS V14.00,2013-08-25 01:24:00,
2013-08-24 20:29:00,75.8,67.7,30.17,NNE,21,0.0,1.0,76,0.00,,---,0.00,VWS V14.00,2013-08-25 01:29:00,
2013-08-24 20:34:00,75.4,67.7,30.17,NNE,22,0.0,1.0,77,0.00,,---,0.00,VWS V14.00,2013-08-25 01:34:00,
2013-08-24 20:39:00,75.1,67.4,30.17,NNE,21,1.0,1.0,77,0.00,,---,0.00,VWS V14.00,2013-08-25 01:39:00,
2013-08-24 20:44:00,75.0,67.7,30.17,NNE,21,1.0,2.0,78,0.00,,---,0.00,VWS V14.00,2013-08-25 01:44:00,
2013-08-24 20:49:00,75.0,67.3,30.17,NNE,23,1.0,2.0,77,0.00,,---,0.00,VWS V14.00,2013-08-25 01:49:00,
2013-08-24 20:54:00,75.1,67.4,30.17,NNE,23,1.0,2.0,77,0.00,,---,0.00,VWS V14.00,2013-08-25 01:54:00,
2013-08-24 20:59:00,75.1,67.4,30.17,NNE,23,1.0,2.0,77,0.00,,---,0.00,VWS V14.00,2013-08-25 01:59:00,
2013-08-24 21:04:00,75.0,67.3,30.17,NNE,23,1.0,2.0,77,0.00,,---,0.00,VWS V14.00,2013-08-25 02:04:00,
2013-08-24 21:09:00,74.9,67.2,30.17,NNE,23,3.0,3.0,77,0.00,,---,0.00,VWS V14.00,2013-08-25 02:09:00,
2013-08-24 21:14:00,74.8,67.1,30.17,NNE,23,2.0,3.0,77,0.00,,---,0.00,VWS V14.00,2013-08-25 02:14:00,
2013-08-24 21:19:00,74.7,67.0,30.18,NNE,25,2.0,3.0,77,0.00,,---,0.00,VWS V14.00,2013-08-25 02:19:00,
2013-08-24 21:24:00,74.6,66.9,30.18,NNE,22,0.0,3.0,77,0.00,,---,0.00,VWS V14.00,2013-08-25 02:24:00,
2013-08-24 21:29:00,74.1,67.2,30.18,NNE,21,0.0,1.0,79,0.00,,---,0.00,VWS V14.00,2013-08-25 02:29:00,
2013-08-24 21:34:00,73.7,67.2,30.18,NNE,21,1.0,2.0,80,0.00,,---,0.00,VWS V14.00,2013-08-25 02:34:00,
2013-08-24 21:39:00,73.5,67.0,30.18,NNE,23,1.0,2.0,80,0.00,,---,0.00,VWS V14.00,2013-08-25 02:39:00,
2013-08-24 21:44:00,73.4,66.9,30.18,NNE,23,1.0,2.0,80,0.00,,---,0.00,VWS V14.00,2013-08-25 02:44:00,
2013-08-24 21:49:00,73.3,66.8,30.19,NNE,23,0.0,1.0,80,0.00,,---,0.00,VWS V14.00,2013-08-25 02:49:00,
2013-08-24 21:54:00,73.2,66.7,30.19,NNE,23,1.0,2.0,80,0.00,,---,0.00,VWS V14.00,2013-08-25 02:54:00,
2013-08-24 21:59:00,73.4,66.5,30.19,NNE,26,1.0,4.0,79,0.00,,---,0.00,VWS V14.00,2013-08-25 02:59:00,
2013-08-24 22:04:00,73.5,66.6,30.19,NNE,25,0.0,3.0,79,0.00,,---,0.00,VWS V14.00,2013-08-25 03:04:00,
2013-08-24 22:09:00,73.4,66.5,30.19,NNE,25,0.0,1.0,79,0.00,,---,0.00,VWS V14.00,2013-08-25 03:09:00,
2013-08-24 22:14:00,73.0,66.1,30.19,NNE,25,0.0,0.0,79,0.00,,---,0.00,VWS V14.00,2013-08-25 03:14:00,
2013-08-24 22:19:00,72.5,66.0,30.19,NNE,25,0.0,0.0,80,0.00,,---,0.00,VWS V14.00,2013-08-25 03:19:00,
2013-08-24 22:24:00,72.2,66.1,30.19,NNE,25,0.0,1.0,81,0.00,,---,0.00,VWS V14.00,2013-08-25 03:24:00,
2013-08-24 22:29:00,72.1,65.9,30.19,NNE,25,0.0,1.0,81,0.00,,---,0.00,VWS V14.00,2013-08-25 03:29:00,
2013-08-24 22:34:00,71.9,65.8,30.19,NNE,25,0.0,0.0,81,0.00,,---,0.00,VWS V14.00,2013-08-25 03:34:00,
2013-08-24 22:39:00,71.6,65.8,30.19,NNE,25,0.0,1.0,82,0.00,,---,0.00,VWS V14.00,2013-08-25 03:39:00,
2013-08-24 22:44:00,71.5,65.7,30.19,NNE,25,0.0,1.0,82,0.00,,---,0.00,VWS V14.00,2013-08-25 03:44:00,
2013-08-24 22:49:00,71.8,66.0,30.19,NNE,25,1.0,1.0,82,0.00,,---,0.00,VWS V14.00,2013-08-25 03:49:00,
2013-08-24 22:54:00,72.2,66.1,30.19,NNE,25,1.0,2.0,81,0.00,,---,0.00,VWS V14.00,2013-08-25 03:54:00,
2013-08-24 22:59:00,72.4,65.9,30.19,NNE,27,2.0,3.0,80,0.00,,---,0.00,VWS V14.00,2013-08-25 03:59:00,
2013-08-24 23:01:00,72.5,66.0,30.19,NNE,26,3.0,3.0,80,0.00,,---,0.00,VWS V14.00,2013-08-25 04:01:00,
2013-08-24 23:02:00,72.6,66.1,30.19,NNE,20,2.0,3.0,80,0.00,,---,0.00,VWS V14.00,2013-08-25 04:02:00,
2013-08-24 23:04:00,72.6,65.7,30.20,NNE,23,3.0,4.0,79,0.00,,---,0.00,VWS V14.00,2013-08-25 04:04:00,
2013-08-24 23:09:00,72.8,65.9,30.20,NNE,23,2.0,4.0,79,0.00,,---,0.00,VWS V14.00,2013-08-25 04:09:00,
2013-08-24 23:14:00,72.6,65.7,30.20,NNE,25,0.0,2.0,79,0.00,,---,0.00,VWS V14.00,2013-08-25 04:14:00,
2013-08-24 23:19:00,72.5,65.6,30.20,NNE,25,1.0,2.0,79,0.00,,---,0.00,VWS V14.00,2013-08-25 04:19:00,
2013-08-24 23:24:00,72.5,65.6,30.20,NNE,25,2.0,3.0,79,0.00,,---,0.00,VWS V14.00,2013-08-25 04:24:00,
2013-08-24 23:29:00,72.4,65.5,30.20,NNE,23,2.0,4.0,79,0.00,,---,0.00,VWS V14.00,2013-08-25 04:29:00,
2013-08-24 23:34:00,72.3,65.4,30.20,NNE,23,2.0,4.0,79,0.00,,---,0.00,VWS V14.00,2013-08-25 04:34:00,
2013-08-24 23:39:00,72.4,65.5,30.20,NNE,27,1.0,4.0,79,0.00,,---,0.00,VWS V14.00,2013-08-25 04:39:00,
2013-08-24 23:44:00,72.3,65.4,30.20,NNE,27,1.0,3.0,79,0.00,,---,0.00,VWS V14.00,2013-08-25 04:44:00,
2013-08-24 23:49:00,72.2,65.3,30.20,NNE,29,2.0,3.0,79,0.00,,---,0.00,VWS V14.00,2013-08-25 04:49:00,
2013-08-24 23:54:00,72.2,65.3,30.20,NNE,30,0.0,2.0,79,0.00,,---,0.00,VWS V14.00,2013-08-25 04:54:00,
2013-08-24 23:59:00,72.0,65.1,30.20,NNE,30,1.0,1.0,79,0.00,,---,0.00,VWS V14.00,2013-08-25 04:59:00,